SBRP Informações do Aeroporto

Informações da Pista
Pista 18 Comprimento 6890 ft Largura 148 ft
Elevação 0 ft Limite 0 ft Heading 0
Pista 36 Comprimento 6890 ft Largura 148 ft
Elevação 0 ft Limite 0 ft Heading 0
Frequências do Aeroporto
Tipo AFIS Nome RIBEIRAO R Frequência 118 MHZ
Tipo APP Nome RIBEIRAO A Frequência 119.55 MHZ
Tipo ATIS Nome ATIS Frequência 127.425 MHZ
Tipo TWR Nome RIBEIRAO T Frequência 118 MHZ
Navaids do Aeroporto
Tipo NDB Nome Ribeirao Frequência 330 KHZ
Informações meteorológicas do aeroporto e NOTAM
ADDS - METARS form results

(0029 UTC 31 May 2020)
Data provider http://aviationweather.gov/metar/data/
 
METAR text: SBRP 310000Z 00000KT CAVOK 16/11 Q1019
Conditions at: SBRP (LEITE LOPES/RIBE, BR) observed 0000 UTC 31 May 2020
Temperature: 16.0°C (61°F)
Dewpoint: 11.0°C (52°F) [RH = 72%]
Pressure (altimeter): 30.09 inches Hg (1019.0 mb)
Winds: calm
Visibility: 6 or more miles (10+ km)
Ceiling: ceiling and visibility are OK
Clouds: unknown
Weather: no significant weather observed at this time

Forecast for: SBRP (LEITE LOPES/RIBE, BR)
Text: TAF SBRP 302210Z 3100/3112 09005KT CAVOK TX18/3100Z TN11/3109Z RMK PGG
Forecast period: 0000 to 1200 UTC 31 May 2020
Forecast type: FROM: standard forecast or significant change
Winds: from the E (90 degrees) at 6 MPH (5 knots; 2.6 m/s)
Visibility: 6 or more miles 10+ km)
Ceiling: unknown
Clouds: missing
Weather: no significant weather forecast for this period